Yeager Airport
KCRW : rendu visible

Aérodrome :











RETROUVEZ-NOUS SUR...

 
LOGIN :

S'inscrire | Disclaimer

   EN    FR    IT 

 









Légende :    VFR   VFR Marginal   IFR   IFR Intensif   IFR Très Intensif
Visi : 
Plafond : 
>= 8 km
>= 3000ft
5 à 8 km
1000 à 3000 ft
1500m à 5 km
500 à 1000 ft
800 à 1500m
200 à 500 ft
< 800m
< 200 ft
Symboles :   Orages  Brouillard  Fortes neiges  Fortes précipitations  Vent > 20 kt






- Altitude de l'aérodrome : 981 ft
- Code IATA : CRW


KCRW - Yeager

DERNIER METAR :
  • 312054Z VRB06KT 10SM SCT060 22/07 A3019 RMK AO2 SLP218 T02220072 58006

METARs EXPIRÉS :
  • 311954Z 32007G17KT 10SM SCT060 21/07 A3020 RMK AO2 SLP221 T02110072
  • 311854Z 29008KT 10SM SCT060 22/07 A3021 RMK AO2 SLP224 T02170072
  • 311754Z 28008KT 10SM SCT050 22/08 A3021 RMK AO2 SLP225 T02170083 10222 20122 58003

TAF KCRW
Valide du 31 à 16h jusqu'au 01 à 12h UTC


311537Z 3116/0112 35006KT P6SM SCT035
FM010000 00000KT P6SM SKC
FIR KZID / Amérique du Nord



MET'MAP, la Météo Aéronautique d'un coup d'oeil ! - Copyright ORBIFLY Décembre 2007 - Disclaimer

ORBIFLY MET'MAP TEAM :

Programmation & Développement : Alexandra Zaïnal
Sur une idée originale de : Baudouin d'Aumeries
Assistance à la programmation : Marc-Olivier Méhu
Soutien technique & logistique : Manuel Goepfert

Contact : metmap@orbifly.com




SOURCES & CREDITS :

   NOAA       Earth
Advisory